sensor_id;sensor_type;location;lat;lon;timestamp;temperature;humidity
2497;DHT22;1259;48.306;14.374;2023-07-20T00:01:24;20.90;99.30
2497;DHT22;1259;48.306;14.374;2023-07-20T00:03:51;20.80;98.70
2497;DHT22;1259;48.306;14.374;2023-07-20T00:06:21;20.80;98.70
2497;DHT22;1259;48.306;14.374;2023-07-20T00:08:47;20.90;98.70
2497;DHT22;1259;48.306;14.374;2023-07-20T00:11:14;20.90;98.90
2497;DHT22;1259;48.306;14.374;2023-07-20T00:13:42;20.90;99.10
2497;DHT22;1259;48.306;14.374;2023-07-20T00:16:09;20.90;99.10
2497;DHT22;1259;48.306;14.374;2023-07-20T00:18:36;20.90;98.90
2497;DHT22;1259;48.306;14.374;2023-07-20T00:21:02;20.90;98.10
2497;DHT22;1259;48.306;14.374;2023-07-20T00:23:29;21.00;97.30
2497;DHT22;1259;48.306;14.374;2023-07-20T00:25:56;21.00;96.70
2497;DHT22;1259;48.306;14.374;2023-07-20T00:28:22;21.00;97.00
2497;DHT22;1259;48.306;14.374;2023-07-20T00:30:50;21.00;97.10
2497;DHT22;1259;48.306;14.374;2023-07-20T00:33:17;20.80;97.90
2497;DHT22;1259;48.306;14.374;2023-07-20T00:35:44;20.80;98.40
2497;DHT22;1259;48.306;14.374;2023-07-20T00:38:11;20.70;99.20
2497;DHT22;1259;48.306;14.374;2023-07-20T00:40:38;20.60;99.90
2497;DHT22;1259;48.306;14.374;2023-07-20T00:43:04;20.60;99.90
2497;DHT22;1259;48.306;14.374;2023-07-20T00:45:31;20.50;99.90
2497;DHT22;1259;48.306;14.374;2023-07-20T00:48:00;20.50;99.90
2497;DHT22;1259;48.306;14.374;2023-07-20T00:50:27;20.50;99.90
2497;DHT22;1259;48.306;14.374;2023-07-20T00:52:54;20.50;99.90
2497;DHT22;1259;48.306;14.374;2023-07-20T00:55:22;20.50;99.90
2497;DHT22;1259;48.306;14.374;2023-07-20T00:57:49;20.40;99.90
2497;DHT22;1259;48.306;14.374;2023-07-20T01:00:17;20.50;99.90
2497;DHT22;1259;48.306;14.374;2023-07-20T01:02:44;20.50;99.90
2497;DHT22;1259;48.306;14.374;2023-07-20T01:05:12;20.50;99.90
2497;DHT22;1259;48.306;14.374;2023-07-20T01:07:43;20.50;99.90
2497;DHT22;1259;48.306;14.374;2023-07-20T01:10:12;20.60;99.90
2497;DHT22;1259;48.306;14.374;2023-07-20T01:12:41;20.60;99.90
2497;DHT22;1259;48.306;14.374;2023-07-20T01:15:07;20.60;99.90
2497;DHT22;1259;48.306;14.374;2023-07-20T01:17:35;20.60;99.90
2497;DHT22;1259;48.306;14.374;2023-07-20T01:20:02;20.50;99.90
2497;DHT22;1259;48.306;14.374;2023-07-20T01:22:36;20.40;99.90
2497;DHT22;1259;48.306;14.374;2023-07-20T01:25:18;20.40;99.90
2497;DHT22;1259;48.306;14.374;2023-07-20T01:30:44;20.30;99.90
2497;DHT22;1259;48.306;14.374;2023-07-20T01:33:15;20.20;99.90
2497;DHT22;1259;48.306;14.374;2023-07-20T01:35:42;20.20;99.90
2497;DHT22;1259;48.306;14.374;2023-07-20T01:38:09;20.20;99.90
2497;DHT22;1259;48.306;14.374;2023-07-20T01:40:36;20.30;99.90
2497;DHT22;1259;48.306;14.374;2023-07-20T01:43:03;20.30;99.90
2497;DHT22;1259;48.306;14.374;2023-07-20T01:45:30;20.30;99.90
2497;DHT22;1259;48.306;14.374;2023-07-20T01:47:57;20.40;99.90
2497;DHT22;1259;48.306;14.374;2023-07-20T01:50:25;20.40;99.90
2497;DHT22;1259;48.306;14.374;2023-07-20T01:52:52;20.40;99.90
2497;DHT22;1259;48.306;14.374;2023-07-20T01:55:18;20.40;99.90
2497;DHT22;1259;48.306;14.374;2023-07-20T01:57:45;20.40;99.90
2497;DHT22;1259;48.306;14.374;2023-07-20T02:00:12;20.50;99.90
2497;DHT22;1259;48.306;14.374;2023-07-20T02:02:39;20.40;99.90
2497;DHT22;1259;48.306;14.374;2023-07-20T02:05:06;20.40;99.90
2497;DHT22;1259;48.306;14.374;2023-07-20T02:07:34;20.40;99.90
2497;DHT22;1259;48.306;14.374;2023-07-20T02:10:00;20.30;99.90
2497;DHT22;1259;48.306;14.374;2023-07-20T02:12:27;20.30;99.90
2497;DHT22;1259;48.306;14.374;2023-07-20T02:14:54;20.30;99.90
2497;DHT22;1259;48.306;14.374;2023-07-20T02:17:21;20.10;99.90
2497;DHT22;1259;48.306;14.374;2023-07-20T02:19:50;19.90;99.90
2497;DHT22;1259;48.306;14.374;2023-07-20T02:22:16;19.90;99.90
2497;DHT22;1259;48.306;14.374;2023-07-20T02:24:44;19.80;99.90
2497;DHT22;1259;48.306;14.374;2023-07-20T02:27:11;19.80;99.90
2497;DHT22;1259;48.306;14.374;2023-07-20T02:29:38;19.70;99.90
2497;DHT22;1259;48.306;14.374;2023-07-20T02:32:05;19.80;99.90
2497;DHT22;1259;48.306;14.374;2023-07-20T02:34:32;19.80;99.90
2497;DHT22;1259;48.306;14.374;2023-07-20T02:36:59;19.80;99.90
2497;DHT22;1259;48.306;14.374;2023-07-20T02:39:26;19.70;99.90
2497;DHT22;1259;48.306;14.374;2023-07-20T02:41:54;19.70;99.90
2497;DHT22;1259;48.306;14.374;2023-07-20T02:44:21;19.70;99.90
2497;DHT22;1259;48.306;14.374;2023-07-20T02:46:48;19.70;99.90
2497;DHT22;1259;48.306;14.374;2023-07-20T02:49:15;19.70;99.90
2497;DHT22;1259;48.306;14.374;2023-07-20T02:51:42;19.60;99.90
2497;DHT22;1259;48.306;14.374;2023-07-20T02:54:09;19.70;99.90
2497;DHT22;1259;48.306;14.374;2023-07-20T02:56:36;19.70;99.90
2497;DHT22;1259;48.306;14.374;2023-07-20T02:59:04;19.70;99.90
2497;DHT22;1259;48.306;14.374;2023-07-20T03:01:31;19.90;99.90
2497;DHT22;1259;48.306;14.374;2023-07-20T03:03:57;20.00;99.90
2497;DHT22;1259;48.306;14.374;2023-07-20T03:06:24;20.10;99.90
2497;DHT22;1259;48.306;14.374;2023-07-20T03:08:51;20.00;99.90
2497;DHT22;1259;48.306;14.374;2023-07-20T03:11:18;20.00;99.90
2497;DHT22;1259;48.306;14.374;2023-07-20T03:13:46;20.00;99.90
2497;DHT22;1259;48.306;14.374;2023-07-20T03:16:15;20.00;99.90
2497;DHT22;1259;48.306;14.374;2023-07-20T03:18:43;19.80;99.90
2497;DHT22;1259;48.306;14.374;2023-07-20T03:21:10;19.80;99.90
2497;DHT22;1259;48.306;14.374;2023-07-20T03:23:37;19.70;99.90
2497;DHT22;1259;48.306;14.374;2023-07-20T03:26:04;19.70;99.90
2497;DHT22;1259;48.306;14.374;2023-07-20T03:28:33;19.70;99.90
2497;DHT22;1259;48.306;14.374;2023-07-20T03:30:59;19.70;99.90
2497;DHT22;1259;48.306;14.374;2023-07-20T03:33:28;19.70;99.90
2497;DHT22;1259;48.306;14.374;2023-07-20T03:35:55;19.80;99.90
2497;DHT22;1259;48.306;14.374;2023-07-20T03:38:22;19.80;99.90
2497;DHT22;1259;48.306;14.374;2023-07-20T03:40:49;19.80;99.90
2497;DHT22;1259;48.306;14.374;2023-07-20T03:43:16;19.90;99.90
2497;DHT22;1259;48.306;14.374;2023-07-20T03:45:42;19.80;99.90
2497;DHT22;1259;48.306;14.374;2023-07-20T03:48:09;19.70;99.90
2497;DHT22;1259;48.306;14.374;2023-07-20T03:50:37;19.70;99.90
2497;DHT22;1259;48.306;14.374;2023-07-20T03:53:04;19.60;99.90
2497;DHT22;1259;48.306;14.374;2023-07-20T03:55:31;19.70;99.90
2497;DHT22;1259;48.306;14.374;2023-07-20T03:57:57;19.70;99.90
2497;DHT22;1259;48.306;14.374;2023-07-20T04:00:24;19.70;99.90
2497;DHT22;1259;48.306;14.374;2023-07-20T04:02:51;19.60;99.90
2497;DHT22;1259;48.306;14.374;2023-07-20T04:05:17;19.70;99.90
2497;DHT22;1259;48.306;14.374;2023-07-20T04:07:45;19.60;99.90
2497;DHT22;1259;48.306;14.374;2023-07-20T04:10:12;19.60;99.90
2497;DHT22;1259;48.306;14.374;2023-07-20T04:12:39;19.80;99.90
2497;DHT22;1259;48.306;14.374;2023-07-20T04:15:06;19.70;99.90
2497;DHT22;1259;48.306;14.374;2023-07-20T04:17:33;19.70;99.90
2497;DHT22;1259;48.306;14.374;2023-07-20T04:19:59;19.60;99.90
2497;DHT22;1259;48.306;14.374;2023-07-20T04:22:26;19.70;99.90
2497;DHT22;1259;48.306;14.374;2023-07-20T04:24:54;19.70;99.90
2497;DHT22;1259;48.306;14.374;2023-07-20T04:27:21;19.80;99.90
2497;DHT22;1259;48.306;14.374;2023-07-20T04:29:48;19.90;99.90
2497;DHT22;1259;48.306;14.374;2023-07-20T04:32:14;19.90;99.90
2497;DHT22;1259;48.306;14.374;2023-07-20T04:34:41;20.10;99.90
2497;DHT22;1259;48.306;14.374;2023-07-20T04:37:08;20.10;99.90
2497;DHT22;1259;48.306;14.374;2023-07-20T04:39:35;20.00;99.90
2497;DHT22;1259;48.306;14.374;2023-07-20T04:42:03;20.10;99.90
2497;DHT22;1259;48.306;14.374;2023-07-20T04:44:30;20.10;99.90
2497;DHT22;1259;48.306;14.374;2023-07-20T04:46:57;20.10;99.90
2497;DHT22;1259;48.306;14.374;2023-07-20T04:49:23;20.00;99.90
2497;DHT22;1259;48.306;14.374;2023-07-20T04:51:50;20.00;99.90
2497;DHT22;1259;48.306;14.374;2023-07-20T04:54:17;20.00;99.90
2497;DHT22;1259;48.306;14.374;2023-07-20T04:56:44;20.00;99.90
2497;DHT22;1259;48.306;14.374;2023-07-20T04:59:12;20.00;99.90
2497;DHT22;1259;48.306;14.374;2023-07-20T05:01:39;19.90;99.90
2497;DHT22;1259;48.306;14.374;2023-07-20T05:04:06;20.00;99.90
2497;DHT22;1259;48.306;14.374;2023-07-20T05:06:32;20.00;99.90
2497;DHT22;1259;48.306;14.374;2023-07-20T05:08:59;20.00;99.90
2497;DHT22;1259;48.306;14.374;2023-07-20T05:11:26;20.10;99.90
2497;DHT22;1259;48.306;14.374;2023-07-20T05:13:52;20.10;99.90
2497;DHT22;1259;48.306;14.374;2023-07-20T05:16:20;20.10;99.90
2497;DHT22;1259;48.306;14.374;2023-07-20T05:18:47;20.20;99.90
2497;DHT22;1259;48.306;14.374;2023-07-20T05:21:14;20.20;99.90
2497;DHT22;1259;48.306;14.374;2023-07-20T05:23:40;20.30;99.90
2497;DHT22;1259;48.306;14.374;2023-07-20T05:26:07;20.30;99.90
2497;DHT22;1259;48.306;14.374;2023-07-20T05:28:34;20.30;99.90
2497;DHT22;1259;48.306;14.374;2023-07-20T05:31:02;20.30;99.90
2497;DHT22;1259;48.306;14.374;2023-07-20T05:33:30;20.40;99.90
2497;DHT22;1259;48.306;14.374;2023-07-20T05:35:57;20.40;99.90
2497;DHT22;1259;48.306;14.374;2023-07-20T05:38:24;20.60;99.90
2497;DHT22;1259;48.306;14.374;2023-07-20T05:40:50;20.60;99.90
2497;DHT22;1259;48.306;14.374;2023-07-20T05:43:17;20.60;99.90
2497;DHT22;1259;48.306;14.374;2023-07-20T05:45:44;20.40;99.90
2497;DHT22;1259;48.306;14.374;2023-07-20T05:48:11;20.50;99.90
2497;DHT22;1259;48.306;14.374;2023-07-20T05:50:42;20.60;99.90
2497;DHT22;1259;48.306;14.374;2023-07-20T05:53:09;20.50;99.90
2497;DHT22;1259;48.306;14.374;2023-07-20T05:55:36;20.50;99.90
2497;DHT22;1259;48.306;14.374;2023-07-20T05:58:04;20.40;99.90
2497;DHT22;1259;48.306;14.374;2023-07-20T06:00:31;20.50;99.90
2497;DHT22;1259;48.306;14.374;2023-07-20T06:02:57;20.60;99.90
2497;DHT22;1259;48.306;14.374;2023-07-20T06:05:24;20.70;99.90
2497;DHT22;1259;48.306;14.374;2023-07-20T06:07:52;20.70;99.90
2497;DHT22;1259;48.306;14.374;2023-07-20T06:10:20;20.80;99.90
2497;DHT22;1259;48.306;14.374;2023-07-20T06:12:46;21.00;99.90
2497;DHT22;1259;48.306;14.374;2023-07-20T06:17:54;21.00;99.90
2497;DHT22;1259;48.306;14.374;2023-07-20T06:20:23;21.00;99.90
2497;DHT22;1259;48.306;14.374;2023-07-20T06:22:50;21.30;99.90
2497;DHT22;1259;48.306;14.374;2023-07-20T06:25:18;21.40;99.90
2497;DHT22;1259;48.306;14.374;2023-07-20T06:27:46;21.50;99.90
2497;DHT22;1259;48.306;14.374;2023-07-20T06:30:12;21.80;99.90
2497;DHT22;1259;48.306;14.374;2023-07-20T06:32:39;21.80;99.90
2497;DHT22;1259;48.306;14.374;2023-07-20T06:35:06;22.00;99.90
2497;DHT22;1259;48.306;14.374;2023-07-20T06:37:33;22.20;99.90
2497;DHT22;1259;48.306;14.374;2023-07-20T06:40:01;22.00;99.90
2497;DHT22;1259;48.306;14.374;2023-07-20T06:42:30;21.90;99.90
2497;DHT22;1259;48.306;14.374;2023-07-20T06:44:56;22.10;99.90
2497;DHT22;1259;48.306;14.374;2023-07-20T06:47:23;22.10;99.90
2497;DHT22;1259;48.306;14.374;2023-07-20T06:49:50;22.10;99.90
2497;DHT22;1259;48.306;14.374;2023-07-20T06:52:17;22.40;99.90
2497;DHT22;1259;48.306;14.374;2023-07-20T06:54:43;22.50;99.90
2497;DHT22;1259;48.306;14.374;2023-07-20T06:57:10;22.70;99.90
2497;DHT22;1259;48.306;14.374;2023-07-20T06:59:38;22.80;99.90
2497;DHT22;1259;48.306;14.374;2023-07-20T07:02:05;22.70;99.90
2497;DHT22;1259;48.306;14.374;2023-07-20T07:04:31;22.60;99.90
2497;DHT22;1259;48.306;14.374;2023-07-20T07:06:58;22.80;99.90
2497;DHT22;1259;48.306;14.374;2023-07-20T07:09:25;22.90;99.90
2497;DHT22;1259;48.306;14.374;2023-07-20T07:11:52;22.50;99.90
2497;DHT22;1259;48.306;14.374;2023-07-20T07:14:19;22.70;99.90
2497;DHT22;1259;48.306;14.374;2023-07-20T07:16:48;22.50;99.90
2497;DHT22;1259;48.306;14.374;2023-07-20T07:19:14;22.60;99.90
2497;DHT22;1259;48.306;14.374;2023-07-20T07:21:41;22.30;99.90
2497;DHT22;1259;48.306;14.374;2023-07-20T07:24:08;22.20;99.90
2497;DHT22;1259;48.306;14.374;2023-07-20T07:26:35;22.20;99.90
2497;DHT22;1259;48.306;14.374;2023-07-20T07:29:02;22.10;99.90
2497;DHT22;1259;48.306;14.374;2023-07-20T07:31:28;22.00;99.90
2497;DHT22;1259;48.306;14.374;2023-07-20T07:33:57;22.10;99.90
2497;DHT22;1259;48.306;14.374;2023-07-20T07:36:23;22.30;99.90
2497;DHT22;1259;48.306;14.374;2023-07-20T07:38:50;22.40;99.90
2497;DHT22;1259;48.306;14.374;2023-07-20T07:41:17;22.20;99.90
2497;DHT22;1259;48.306;14.374;2023-07-20T07:43:44;22.10;99.90
2497;DHT22;1259;48.306;14.374;2023-07-20T07:46:10;22.30;99.90
2497;DHT22;1259;48.306;14.374;2023-07-20T07:48:37;22.30;99.90
2497;DHT22;1259;48.306;14.374;2023-07-20T07:51:05;22.70;99.90
2497;DHT22;1259;48.306;14.374;2023-07-20T07:53:32;23.00;99.90
2497;DHT22;1259;48.306;14.374;2023-07-20T07:56:00;23.10;99.90
2497;DHT22;1259;48.306;14.374;2023-07-20T07:58:28;23.20;99.90
2497;DHT22;1259;48.306;14.374;2023-07-20T08:00:55;23.30;99.90
2497;DHT22;1259;48.306;14.374;2023-07-20T08:03:21;23.40;99.90
2497;DHT22;1259;48.306;14.374;2023-07-20T08:05:49;23.50;99.90
2497;DHT22;1259;48.306;14.374;2023-07-20T08:08:18;23.60;99.90
2497;DHT22;1259;48.306;14.374;2023-07-20T08:10:45;23.90;99.90
2497;DHT22;1259;48.306;14.374;2023-07-20T08:13:12;24.20;99.90
2497;DHT22;1259;48.306;14.374;2023-07-20T08:15:39;24.10;99.90
2497;DHT22;1259;48.306;14.374;2023-07-20T08:18:06;24.10;99.90
2497;DHT22;1259;48.306;14.374;2023-07-20T08:20:33;24.10;99.90
2497;DHT22;1259;48.306;14.374;2023-07-20T08:23:01;24.30;99.90
2497;DHT22;1259;48.306;14.374;2023-07-20T08:25:29;24.20;99.90
2497;DHT22;1259;48.306;14.374;2023-07-20T08:27:55;23.90;99.90
2497;DHT22;1259;48.306;14.374;2023-07-20T08:30:22;23.80;99.90
2497;DHT22;1259;48.306;14.374;2023-07-20T08:32:49;24.00;99.90
2497;DHT22;1259;48.306;14.374;2023-07-20T08:35:16;24.40;99.90
2497;DHT22;1259;48.306;14.374;2023-07-20T08:37:43;24.50;99.90
2497;DHT22;1259;48.306;14.374;2023-07-20T08:40:11;24.40;99.90
2497;DHT22;1259;48.306;14.374;2023-07-20T08:42:40;24.70;99.90
2497;DHT22;1259;48.306;14.374;2023-07-20T08:45:08;24.50;99.90
2497;DHT22;1259;48.306;14.374;2023-07-20T08:47:35;24.10;99.90
2497;DHT22;1259;48.306;14.374;2023-07-20T08:50:02;23.90;99.90
2497;DHT22;1259;48.306;14.374;2023-07-20T08:52:32;24.00;99.90
2497;DHT22;1259;48.306;14.374;2023-07-20T08:55:00;24.30;99.90
2497;DHT22;1259;48.306;14.374;2023-07-20T08:57:28;24.30;98.70
2497;DHT22;1259;48.306;14.374;2023-07-20T08:59:57;24.60;99.80
2497;DHT22;1259;48.306;14.374;2023-07-20T09:02:24;24.30;98.90
2497;DHT22;1259;48.306;14.374;2023-07-20T09:04:51;24.50;99.60
2497;DHT22;1259;48.306;14.374;2023-07-20T09:07:18;24.20;99.50
2497;DHT22;1259;48.306;14.374;2023-07-20T09:09:45;24.40;99.20
2497;DHT22;1259;48.306;14.374;2023-07-20T09:12:15;24.10;99.50
2497;DHT22;1259;48.306;14.374;2023-07-20T09:14:42;23.80;98.80
2497;DHT22;1259;48.306;14.374;2023-07-20T09:17:13;24.00;98.90
2497;DHT22;1259;48.306;14.374;2023-07-20T09:19:45;23.90;96.50
2497;DHT22;1259;48.306;14.374;2023-07-20T09:22:12;24.10;97.10
2497;DHT22;1259;48.306;14.374;2023-07-20T09:24:38;24.30;97.20
2497;DHT22;1259;48.306;14.374;2023-07-20T09:27:06;24.30;94.40
2497;DHT22;1259;48.306;14.374;2023-07-20T09:29:34;24.60;95.20
2497;DHT22;1259;48.306;14.374;2023-07-20T09:32:02;24.60;94.80
2497;DHT22;1259;48.306;14.374;2023-07-20T09:34:30;24.80;94.80
2497;DHT22;1259;48.306;14.374;2023-07-20T09:36:57;24.80;93.80
2497;DHT22;1259;48.306;14.374;2023-07-20T09:39:24;24.80;93.60
2497;DHT22;1259;48.306;14.374;2023-07-20T09:41:51;24.50;91.90
2497;DHT22;1259;48.306;14.374;2023-07-20T09:44:17;24.30;92.80
2497;DHT22;1259;48.306;14.374;2023-07-20T09:46:45;24.20;92.20
2497;DHT22;1259;48.306;14.374;2023-07-20T09:49:12;24.10;92.60
2497;DHT22;1259;48.306;14.374;2023-07-20T09:51:40;24.10;92.50
2497;DHT22;1259;48.306;14.374;2023-07-20T09:54:07;24.00;92.60
2497;DHT22;1259;48.306;14.374;2023-07-20T09:56:34;24.00;92.40
2497;DHT22;1259;48.306;14.374;2023-07-20T09:59:01;23.90;93.10
2497;DHT22;1259;48.306;14.374;2023-07-20T10:01:28;23.90;92.70
2497;DHT22;1259;48.306;14.374;2023-07-20T10:03:56;24.10;93.30
2497;DHT22;1259;48.306;14.374;2023-07-20T10:06:26;24.30;92.80
2497;DHT22;1259;48.306;14.374;2023-07-20T10:08:58;24.10;92.40
2497;DHT22;1259;48.306;14.374;2023-07-20T10:11:27;24.30;92.80
2497;DHT22;1259;48.306;14.374;2023-07-20T10:13:56;24.10;92.20
2497;DHT22;1259;48.306;14.374;2023-07-20T10:16:25;24.40;92.20
2497;DHT22;1259;48.306;14.374;2023-07-20T10:18:54;24.50;91.60
2497;DHT22;1259;48.306;14.374;2023-07-20T10:21:25;24.80;91.60
2497;DHT22;1259;48.306;14.374;2023-07-20T10:23:52;25.10;90.60
2497;DHT22;1259;48.306;14.374;2023-07-20T10:26:22;25.00;89.40
2497;DHT22;1259;48.306;14.374;2023-07-20T10:28:48;25.20;89.70
2497;DHT22;1259;48.306;14.374;2023-07-20T10:31:15;25.40;87.40
2497;DHT22;1259;48.306;14.374;2023-07-20T10:33:43;25.00;86.60
2497;DHT22;1259;48.306;14.374;2023-07-20T10:36:10;24.90;89.00
2497;DHT22;1259;48.306;14.374;2023-07-20T10:38:38;24.60;86.80
2497;DHT22;1259;48.306;14.374;2023-07-20T10:41:16;24.80;88.50
2497;DHT22;1259;48.306;14.374;2023-07-20T10:43:45;24.90;90.40
2497;DHT22;1259;48.306;14.374;2023-07-20T10:46:12;25.20;89.60
2497;DHT22;1259;48.306;14.374;2023-07-20T10:51:20;25.10;89.90
2497;DHT22;1259;48.306;14.374;2023-07-20T10:53:48;24.70;88.00
2497;DHT22;1259;48.306;14.374;2023-07-20T10:56:15;24.90;88.80
2497;DHT22;1259;48.306;14.374;2023-07-20T10:58:46;25.10;89.00
2497;DHT22;1259;48.306;14.374;2023-07-20T11:01:13;24.90;84.30
2497;DHT22;1259;48.306;14.374;2023-07-20T11:03:40;24.50;82.90
2497;DHT22;1259;48.306;14.374;2023-07-20T11:09:04;24.50;84.40
2497;DHT22;1259;48.306;14.374;2023-07-20T11:11:32;24.50;85.70
2497;DHT22;1259;48.306;14.374;2023-07-20T11:14:01;24.60;84.00
2497;DHT22;1259;48.306;14.374;2023-07-20T11:16:35;24.50;85.10
2497;DHT22;1259;48.306;14.374;2023-07-20T11:19:03;24.40;82.50
2497;DHT22;1259;48.306;14.374;2023-07-20T11:21:35;24.40;82.90
2497;DHT22;1259;48.306;14.374;2023-07-20T11:24:03;24.50;83.20
2497;DHT22;1259;48.306;14.374;2023-07-20T11:26:29;24.60;82.50
2497;DHT22;1259;48.306;14.374;2023-07-20T11:28:56;24.50;84.20
2497;DHT22;1259;48.306;14.374;2023-07-20T11:31:24;24.50;83.70
2497;DHT22;1259;48.306;14.374;2023-07-20T11:33:51;24.00;82.30
2497;DHT22;1259;48.306;14.374;2023-07-20T11:36:17;24.30;83.60
2497;DHT22;1259;48.306;14.374;2023-07-20T11:38:44;24.50;85.10
2497;DHT22;1259;48.306;14.374;2023-07-20T11:41:12;25.00;85.70
2497;DHT22;1259;48.306;14.374;2023-07-20T11:43:39;24.60;82.90
2497;DHT22;1259;48.306;14.374;2023-07-20T11:46:07;24.40;82.40
2497;DHT22;1259;48.306;14.374;2023-07-20T11:48:35;24.50;83.20
2497;DHT22;1259;48.306;14.374;2023-07-20T11:51:02;24.60;81.30
2497;DHT22;1259;48.306;14.374;2023-07-20T11:53:28;24.90;81.90
2497;DHT22;1259;48.306;14.374;2023-07-20T11:55:55;24.90;82.10
2497;DHT22;1259;48.306;14.374;2023-07-20T11:58:23;25.20;82.10
2497;DHT22;1259;48.306;14.374;2023-07-20T12:00:49;25.20;81.60
2497;DHT22;1259;48.306;14.374;2023-07-20T12:03:16;25.20;81.00
2497;DHT22;1259;48.306;14.374;2023-07-20T12:05:45;25.30;81.20
2497;DHT22;1259;48.306;14.374;2023-07-20T12:08:12;25.00;80.50
2497;DHT22;1259;48.306;14.374;2023-07-20T12:10:39;25.20;79.80
2497;DHT22;1259;48.306;14.374;2023-07-20T12:13:09;25.10;78.80
2497;DHT22;1259;48.306;14.374;2023-07-20T12:15:36;25.10;78.70
2497;DHT22;1259;48.306;14.374;2023-07-20T12:18:03;25.00;78.10
2497;DHT22;1259;48.306;14.374;2023-07-20T12:20:30;24.80;79.00
2497;DHT22;1259;48.306;14.374;2023-07-20T12:22:59;25.10;78.20
2497;DHT22;1259;48.306;14.374;2023-07-20T12:25:34;25.00;77.80
2497;DHT22;1259;48.306;14.374;2023-07-20T12:28:01;25.00;75.80
2497;DHT22;1259;48.306;14.374;2023-07-20T12:30:29;25.40;76.20
2497;DHT22;1259;48.306;14.374;2023-07-20T12:32:55;25.50;76.40
2497;DHT22;1259;48.306;14.374;2023-07-20T12:35:22;25.60;76.10
2497;DHT22;1259;48.306;14.374;2023-07-20T12:37:49;25.50;75.30
2497;DHT22;1259;48.306;14.374;2023-07-20T12:40:18;25.80;75.50
2497;DHT22;1259;48.306;14.374;2023-07-20T12:42:44;25.70;72.90
2497;DHT22;1259;48.306;14.374;2023-07-20T12:45:11;25.70;73.60
2497;DHT22;1259;48.306;14.374;2023-07-20T12:47:39;25.60;72.60
2497;DHT22;1259;48.306;14.374;2023-07-20T12:50:06;25.60;72.80
2497;DHT22;1259;48.306;14.374;2023-07-20T12:52:35;25.40;71.90
2497;DHT22;1259;48.306;14.374;2023-07-20T12:55:02;25.30;72.60
2497;DHT22;1259;48.306;14.374;2023-07-20T12:57:30;25.50;73.30
2497;DHT22;1259;48.306;14.374;2023-07-20T12:59:57;25.70;75.30
2497;DHT22;1259;48.306;14.374;2023-07-20T13:02:24;25.70;72.50
2497;DHT22;1259;48.306;14.374;2023-07-20T13:04:50;25.70;72.90
2497;DHT22;1259;48.306;14.374;2023-07-20T13:07:17;25.30;70.70
2497;DHT22;1259;48.306;14.374;2023-07-20T13:09:55;25.40;72.00
2497;DHT22;1259;48.306;14.374;2023-07-20T13:12:21;25.70;72.80
2497;DHT22;1259;48.306;14.374;2023-07-20T13:14:49;25.80;72.40
2497;DHT22;1259;48.306;14.374;2023-07-20T13:17:16;25.70;72.90
2497;DHT22;1259;48.306;14.374;2023-07-20T13:19:43;25.80;70.50
2497;DHT22;1259;48.306;14.374;2023-07-20T13:22:10;25.80;70.70
2497;DHT22;1259;48.306;14.374;2023-07-20T13:24:36;25.30;70.20
2497;DHT22;1259;48.306;14.374;2023-07-20T13:27:03;25.20;70.00
2497;DHT22;1259;48.306;14.374;2023-07-20T13:29:30;25.30;71.20
2497;DHT22;1259;48.306;14.374;2023-07-20T13:31:58;25.40;72.50
2497;DHT22;1259;48.306;14.374;2023-07-20T13:34:25;25.60;72.20
2497;DHT22;1259;48.306;14.374;2023-07-20T13:36:52;25.70;72.00
2497;DHT22;1259;48.306;14.374;2023-07-20T13:39:19;25.80;69.30
2497;DHT22;1259;48.306;14.374;2023-07-20T13:41:49;25.80;70.20
2497;DHT22;1259;48.306;14.374;2023-07-20T13:44:16;25.80;71.60
2497;DHT22;1259;48.306;14.374;2023-07-20T13:46:42;25.80;70.60
2497;DHT22;1259;48.306;14.374;2023-07-20T13:49:11;25.50;70.60
2497;DHT22;1259;48.306;14.374;2023-07-20T13:51:37;25.60;70.90
2497;DHT22;1259;48.306;14.374;2023-07-20T13:54:04;25.70;72.40
2497;DHT22;1259;48.306;14.374;2023-07-20T13:56:31;25.80;71.30
2497;DHT22;1259;48.306;14.374;2023-07-20T13:58:57;26.00;72.90
2497;DHT22;1259;48.306;14.374;2023-07-20T14:01:24;25.90;71.30
2497;DHT22;1259;48.306;14.374;2023-07-20T14:03:53;25.70;70.20
2497;DHT22;1259;48.306;14.374;2023-07-20T14:06:21;25.50;69.80
2497;DHT22;1259;48.306;14.374;2023-07-20T14:08:48;25.40;71.20
2497;DHT22;1259;48.306;14.374;2023-07-20T14:11:15;25.40;69.30
2497;DHT22;1259;48.306;14.374;2023-07-20T14:13:42;25.30;69.60
2497;DHT22;1259;48.306;14.374;2023-07-20T14:16:08;25.50;71.40
2497;DHT22;1259;48.306;14.374;2023-07-20T14:18:35;25.60;70.20
2497;DHT22;1259;48.306;14.374;2023-07-20T14:21:02;25.50;69.50
2497;DHT22;1259;48.306;14.374;2023-07-20T14:23:31;25.50;70.60
2497;DHT22;1259;48.306;14.374;2023-07-20T14:25:58;25.70;70.60
2497;DHT22;1259;48.306;14.374;2023-07-20T14:28:25;25.50;68.70
2497;DHT22;1259;48.306;14.374;2023-07-20T14:30:51;25.40;68.10
2497;DHT22;1259;48.306;14.374;2023-07-20T14:33:19;25.60;70.50
2497;DHT22;1259;48.306;14.374;2023-07-20T14:35:47;25.60;71.20
2497;DHT22;1259;48.306;14.374;2023-07-20T14:38:14;25.70;70.70
2497;DHT22;1259;48.306;14.374;2023-07-20T14:40:42;25.60;69.00
2497;DHT22;1259;48.306;14.374;2023-07-20T14:43:08;25.40;69.20
2497;DHT22;1259;48.306;14.374;2023-07-20T14:45:35;25.40;69.60
2497;DHT22;1259;48.306;14.374;2023-07-20T14:48:03;25.40;69.20
2497;DHT22;1259;48.306;14.374;2023-07-20T14:50:29;25.40;67.90
2497;DHT22;1259;48.306;14.374;2023-07-20T14:52:56;25.40;68.80
2497;DHT22;1259;48.306;14.374;2023-07-20T14:55:23;25.40;69.20
2497;DHT22;1259;48.306;14.374;2023-07-20T14:57:52;25.30;68.40
2497;DHT22;1259;48.306;14.374;2023-07-20T15:00:18;25.20;68.80
2497;DHT22;1259;48.306;14.374;2023-07-20T15:02:45;25.20;68.20
2497;DHT22;1259;48.306;14.374;2023-07-20T15:05:12;25.20;68.60
2497;DHT22;1259;48.306;14.374;2023-07-20T15:07:46;25.20;68.70
2497;DHT22;1259;48.306;14.374;2023-07-20T15:10:13;25.10;69.60
2497;DHT22;1259;48.306;14.374;2023-07-20T15:12:39;25.10;69.40
2497;DHT22;1259;48.306;14.374;2023-07-20T15:15:09;25.20;69.70
2497;DHT22;1259;48.306;14.374;2023-07-20T15:17:36;25.10;69.50
2497;DHT22;1259;48.306;14.374;2023-07-20T15:20:04;25.10;70.80
2497;DHT22;1259;48.306;14.374;2023-07-20T15:22:31;25.20;70.00
2497;DHT22;1259;48.306;14.374;2023-07-20T15:24:58;25.00;70.00
2497;DHT22;1259;48.306;14.374;2023-07-20T15:27:24;25.20;69.90
2497;DHT22;1259;48.306;14.374;2023-07-20T15:29:51;25.10;68.00
2497;DHT22;1259;48.306;14.374;2023-07-20T15:32:19;25.20;69.40
2497;DHT22;1259;48.306;14.374;2023-07-20T15:34:46;25.20;68.90
2497;DHT22;1259;48.306;14.374;2023-07-20T15:37:13;25.20;69.40
2497;DHT22;1259;48.306;14.374;2023-07-20T15:39:40;25.10;69.50
2497;DHT22;1259;48.306;14.374;2023-07-20T15:42:07;25.00;69.20
2497;DHT22;1259;48.306;14.374;2023-07-20T15:44:34;25.00;69.20
2497;DHT22;1259;48.306;14.374;2023-07-20T15:47:00;25.00;69.40
2497;DHT22;1259;48.306;14.374;2023-07-20T15:49:29;25.00;68.50
2497;DHT22;1259;48.306;14.374;2023-07-20T15:51:56;24.90;69.10
2497;DHT22;1259;48.306;14.374;2023-07-20T15:54:22;24.90;69.80
2497;DHT22;1259;48.306;14.374;2023-07-20T15:56:49;25.00;69.90